createdAt,value
2017-08-03T00:02:11.555Z,36.90
2017-08-03T00:04:39.023Z,39.20
2017-08-03T00:07:07.383Z,39.57
2017-08-03T00:09:35.642Z,40.10
2017-08-03T00:12:03.906Z,37.67
2017-08-03T00:14:32.267Z,38.47
2017-08-03T00:17:00.505Z,33.83
2017-08-03T00:19:27.975Z,43.13
2017-08-03T00:21:55.510Z,38.90
2017-08-03T00:24:23.795Z,39.33
2017-08-03T00:26:51.323Z,39.23
2017-08-03T00:29:19.778Z,42.60
2017-08-03T00:31:48.041Z,41.90
2017-08-03T00:34:16.278Z,40.13
2017-08-03T00:36:43.782Z,37.73
2017-08-03T00:39:11.286Z,38.27
2017-08-03T00:41:39.518Z,44.03
2017-08-03T00:44:07.189Z,42.13
2017-08-03T00:46:35.426Z,41.97
2017-08-03T00:49:02.994Z,43.20
2017-08-03T00:51:31.270Z,42.20
2017-08-03T00:53:58.798Z,50.83
2017-08-03T00:56:27.030Z,44.27
2017-08-03T00:58:54.586Z,45.40
2017-08-03T01:01:22.154Z,47.93
2017-08-03T01:03:50.391Z,47.50
2017-08-03T01:06:17.890Z,47.47
2017-08-03T01:08:45.395Z,46.47
2017-08-03T01:11:13.633Z,49.33
2017-08-03T01:13:41.194Z,47.47
2017-08-03T01:16:09.553Z,47.90
2017-08-03T01:18:37.786Z,50.03
2017-08-03T01:21:05.291Z,49.13
2017-08-03T01:23:32.806Z,50.73
2017-08-03T01:26:01.062Z,50.90
2017-08-03T01:28:29.529Z,54.93
2017-08-03T01:30:57.787Z,55.67
2017-08-03T01:33:26.045Z,49.43
2017-08-03T01:35:54.650Z,57.27
2017-08-03T01:38:22.117Z,50.23
2017-08-03T01:40:49.618Z,53.30
2017-08-03T01:43:17.349Z,48.30
2017-08-03T01:45:45.586Z,56.37
2017-08-03T01:48:13.150Z,51.20
2017-08-03T01:50:41.566Z,56.40
2017-08-03T01:53:09.158Z,50.83
2017-08-03T01:55:37.423Z,54.03
2017-08-03T01:58:05.881Z,49.07
2017-08-03T02:00:34.246Z,47.90
2017-08-03T02:03:02.506Z,45.40
2017-08-03T02:05:30.914Z,50.63
2017-08-03T02:07:58.385Z,52.57
2017-08-03T02:10:25.954Z,53.00
2017-08-03T02:12:54.319Z,49.43
2017-08-03T02:15:22.583Z,48.37
2017-08-03T02:17:50.125Z,44.47
2017-08-03T02:20:19.117Z,46.93
2017-08-03T02:22:46.586Z,54.30
2017-08-03T02:25:14.064Z,43.40
2017-08-03T02:27:41.722Z,50.40
2017-08-03T02:30:09.963Z,48.07
2017-08-03T02:32:37.433Z,46.07
2017-08-03T02:35:05.895Z,45.13
2017-08-03T02:37:34.163Z,44.80
2017-08-03T02:40:02.427Z,43.70
2017-08-03T02:42:30.266Z,41.37
2017-08-03T02:44:58.503Z,43.67
2017-08-03T02:47:25.974Z,39.00
2017-08-03T02:49:53.617Z,32.50
2017-08-03T02:52:21.855Z,37.90
2017-08-03T02:54:49.422Z,31.07
2017-08-03T02:57:17.771Z,36.13
2017-08-03T02:59:45.238Z,34.13
2017-08-03T03:02:12.765Z,35.07
2017-08-03T03:04:41.030Z,39.13
2017-08-03T03:07:09.262Z,34.23
2017-08-03T03:09:36.734Z,42.27
2017-08-03T03:12:05.002Z,37.13
2017-08-03T03:14:32.530Z,25.73
2017-08-03T03:17:00.766Z,28.17
2017-08-03T03:19:28.537Z,29.40
2017-08-03T03:21:56.779Z,26.00
2017-08-03T03:24:24.247Z,26.00
2017-08-03T03:26:51.787Z,27.40
2017-08-03T03:29:20.022Z,33.23
2017-08-03T03:31:47.498Z,26.90
2017-08-03T03:34:15.031Z,29.23
2017-08-03T03:36:43.290Z,26.50
2017-08-03T03:39:11.526Z,23.57
2017-08-03T03:41:39.173Z,27.87
2017-08-03T03:44:06.746Z,27.50
2017-08-03T03:46:34.997Z,31.43
2017-08-03T03:49:03.259Z,24.57
2017-08-03T03:51:31.497Z,24.90
2017-08-03T03:53:59.066Z,28.50
2017-08-03T03:56:27.414Z,21.90
2017-08-03T03:58:55.650Z,20.27
2017-08-03T04:01:23.127Z,21.60
2017-08-03T04:03:51.562Z,22.00
2017-08-03T04:06:19.038Z,25.03
2017-08-03T04:08:47.295Z,21.63
2017-08-03T04:11:15.654Z,22.60
2017-08-03T04:13:43.919Z,25.90
2017-08-03T04:16:12.178Z,20.30
2017-08-03T04:18:40.544Z,22.10
2017-08-03T04:21:08.773Z,23.20
2017-08-03T04:23:36.242Z,21.07
2017-08-03T04:26:04.605Z,20.47
2017-08-03T04:28:32.862Z,20.07
2017-08-03T04:31:01.123Z,20.67
2017-08-03T04:33:29.486Z,21.33
2017-08-03T04:35:57.746Z,26.97
2017-08-03T04:38:25.982Z,22.43
2017-08-03T04:40:53.547Z,19.33
2017-08-03T04:43:21.790Z,20.97
2017-08-03T04:45:49.280Z,20.20
2017-08-03T04:48:16.794Z,19.83
2017-08-03T04:50:45.026Z,20.23
2017-08-03T04:53:12.612Z,21.33
2017-08-03T04:55:40.246Z,27.90
2017-08-03T04:58:08.505Z,21.53
2017-08-03T05:00:36.738Z,20.37
2017-08-03T05:03:04.240Z,22.00
2017-08-03T05:05:31.711Z,24.50
2017-08-03T05:07:59.178Z,26.43
2017-08-03T05:10:27.550Z,22.33
2017-08-03T05:12:55.794Z,21.73
2017-08-03T05:15:23.258Z,22.37
2017-08-03T05:17:51.614Z,21.17
2017-08-03T05:20:19.867Z,24.97
2017-08-03T05:22:47.338Z,27.13
2017-08-03T05:25:14.850Z,23.53
2017-08-03T05:27:43.122Z,20.17
2017-08-03T05:30:11.366Z,19.53
2017-08-03T05:32:38.926Z,20.10
2017-08-03T05:35:07.190Z,22.63
2017-08-03T05:37:35.446Z,19.07
2017-08-03T05:40:03.806Z,21.23
2017-08-03T05:42:32.070Z,21.77
2017-08-03T05:45:00.315Z,19.63
2017-08-03T05:47:28.762Z,18.33
2017-08-03T05:49:56.238Z,20.67
2017-08-03T05:52:24.502Z,18.53
2017-08-03T05:54:52.034Z,18.67
2017-08-03T05:57:20.299Z,17.60
2017-08-03T05:59:48.543Z,18.77
2017-08-03T06:02:16.202Z,17.27
2017-08-03T06:04:44.434Z,16.33
2017-08-03T06:07:12.014Z,17.10
2017-08-03T06:09:40.374Z,16.80
2017-08-03T06:12:08.606Z,16.37
2017-08-03T06:14:36.075Z,15.83
2017-08-03T06:17:04.335Z,23.10
2017-08-03T06:19:32.566Z,20.70
2017-08-03T06:22:00.134Z,17.07
2017-08-03T06:24:28.501Z,17.00
2017-08-03T06:26:56.763Z,21.47
2017-08-03T06:29:25.021Z,16.70
2017-08-03T06:31:52.566Z,18.07
2017-08-03T06:34:20.106Z,17.20
2017-08-03T06:36:48.451Z,19.27
2017-08-03T06:39:16.015Z,19.00
2017-08-03T06:41:44.269Z,20.80
2017-08-03T06:44:12.505Z,16.07
2017-08-03T06:46:40.488Z,20.03
2017-08-03T06:49:08.030Z,15.57
2017-08-03T06:51:36.290Z,17.50
2017-08-03T06:54:04.755Z,18.50
2017-08-03T06:56:33.017Z,15.67
2017-08-03T06:59:01.259Z,14.17
2017-08-03T07:01:29.022Z,15.67
2017-08-03T07:03:57.257Z,12.03
2017-08-03T07:06:24.733Z,11.87
2017-08-03T07:08:52.218Z,11.87
2017-08-03T07:11:20.027Z,11.90
2017-08-03T07:13:47.569Z,12.20
2017-08-03T07:16:15.821Z,11.90
2017-08-03T07:18:44.083Z,11.07
2017-08-03T07:21:12.339Z,11.43
2017-08-03T07:23:40.798Z,15.43
2017-08-03T07:26:09.058Z,11.70
2017-08-03T07:28:37.327Z,10.57
2017-08-03T07:31:05.607Z,13.23
2017-08-03T07:33:33.122Z,16.20
2017-08-03T07:36:01.586Z,9.70
2017-08-03T07:38:29.858Z,13.10
2017-08-03T07:40:58.118Z,9.60
2017-08-03T07:43:26.578Z,8.33
2017-08-03T07:45:54.843Z,10.80
2017-08-03T07:48:23.098Z,7.70
2017-08-03T07:50:51.457Z,12.20
2017-08-03T07:53:19.727Z,8.50
2017-08-03T07:55:47.962Z,11.27
2017-08-03T07:58:15.476Z,9.73
2017-08-03T08:00:42.942Z,5.87
2017-08-03T08:03:10.503Z,10.67
2017-08-03T08:05:38.775Z,10.90
2017-08-03T08:08:07.003Z,7.90
2017-08-03T08:10:34.570Z,12.73
2017-08-03T08:13:02.835Z,6.37
2017-08-03T08:15:31.071Z,7.33
2017-08-03T08:17:58.536Z,6.07
2017-08-03T08:20:26.901Z,9.80
2017-08-03T08:22:55.127Z,8.00
2017-08-03T08:25:22.586Z,6.00
2017-08-03T08:27:50.859Z,5.10
2017-08-03T08:30:19.125Z,5.10
2017-08-03T08:32:47.586Z,7.37
2017-08-03T08:35:15.822Z,10.13
2017-08-03T08:37:43.387Z,5.63
2017-08-03T08:40:11.753Z,9.33
2017-08-03T08:42:40.114Z,5.73
2017-08-03T08:45:08.345Z,8.40
2017-08-03T08:47:35.918Z,7.20
2017-08-03T08:50:03.467Z,6.87
2017-08-03T08:52:31.698Z,9.63
2017-08-03T08:54:59.157Z,6.00
2017-08-03T08:57:27.522Z,8.73
2017-08-03T08:59:55.786Z,6.20
2017-08-03T09:02:24.018Z,7.97
2017-08-03T09:04:51.567Z,4.87
2017-08-03T09:07:19.035Z,4.93
2017-08-03T09:09:47.262Z,4.80
2017-08-03T09:12:14.835Z,5.47
2017-08-03T09:14:43.103Z,11.10
2017-08-03T09:17:10.638Z,4.47
2017-08-03T09:19:39.097Z,5.70
2017-08-03T09:22:07.359Z,4.70
2017-08-03T09:24:35.599Z,4.60
2017-08-03T09:27:03.157Z,4.20
2017-08-03T09:29:31.382Z,4.13
2017-08-03T09:31:58.865Z,4.53
2017-08-03T09:34:27.330Z,12.40
2017-08-03T09:36:55.562Z,4.10
2017-08-03T09:39:23.031Z,5.20
2017-08-03T09:41:51.402Z,5.03
2017-08-03T09:44:19.642Z,10.73
2017-08-03T09:46:47.106Z,6.43
2017-08-03T09:49:14.841Z,4.53
2017-08-03T09:51:43.211Z,7.17
2017-08-03T09:54:11.471Z,8.63
2017-08-03T09:56:39.929Z,4.10
2017-08-03T09:59:08.170Z,6.30
2017-08-03T10:01:35.734Z,4.80
2017-08-03T10:04:04.194Z,6.60
2017-08-03T10:06:32.422Z,6.87
2017-08-03T10:08:59.887Z,4.80
2017-08-03T10:11:27.442Z,6.27
2017-08-03T10:13:55.677Z,5.23
2017-08-03T10:16:23.142Z,5.17
2017-08-03T10:18:51.609Z,4.37
2017-08-03T10:21:19.858Z,10.10
2017-08-03T10:23:47.318Z,3.40
2017-08-03T10:26:15.575Z,4.07
2017-08-03T10:28:43.834Z,6.40
2017-08-03T10:31:12.070Z,7.10
2017-08-03T10:33:39.838Z,4.27
2017-08-03T10:36:08.106Z,6.03
2017-08-03T10:38:36.373Z,8.77
2017-08-03T10:41:03.878Z,5.93
2017-08-03T10:43:31.492Z,8.27
2017-08-03T10:45:58.953Z,4.47
2017-08-03T10:48:26.456Z,5.50
2017-08-03T10:50:54.126Z,5.43
2017-08-03T10:53:21.636Z,6.13
2017-08-03T10:55:49.158Z,4.20
2017-08-03T10:58:16.710Z,3.80
2017-08-03T11:00:44.939Z,6.93
2017-08-03T11:03:12.429Z,3.47
2017-08-03T11:05:39.954Z,3.40
2017-08-03T11:08:08.218Z,2.73
2017-08-03T11:10:36.678Z,6.90
2017-08-03T11:13:04.902Z,4.37
2017-08-03T11:15:32.382Z,6.93
2017-08-03T11:18:00.647Z,4.10
2017-08-03T11:20:28.914Z,3.47
2017-08-03T11:22:56.430Z,4.50
2017-08-03T11:25:23.902Z,8.10
2017-08-03T11:27:51.475Z,3.97
2017-08-03T11:30:19.686Z,3.93
2017-08-03T11:32:47.950Z,6.10
2017-08-03T11:35:16.181Z,5.40
2017-08-03T11:37:43.754Z,5.27
2017-08-03T11:40:12.119Z,5.30
2017-08-03T11:42:43.258Z,5.60
2017-08-03T11:45:10.891Z,7.47
2017-08-03T11:47:39.249Z,6.20
2017-08-03T11:50:07.482Z,7.13
2017-08-03T11:52:34.946Z,6.97
2017-08-03T11:55:03.223Z,6.60
2017-08-03T11:57:30.686Z,5.30
2017-08-03T11:59:58.195Z,4.87
2017-08-03T12:02:26.563Z,4.47
2017-08-03T12:04:54.823Z,6.57
2017-08-03T12:07:23.054Z,2.97
2017-08-03T12:09:50.545Z,3.50
2017-08-03T12:12:18.070Z,3.03
2017-08-03T12:14:46.326Z,2.43
2017-08-03T12:17:14.686Z,3.53
2017-08-03T12:19:42.946Z,3.63
2017-08-03T12:22:11.173Z,2.83
2017-08-03T12:24:38.654Z,2.80
2017-08-03T12:27:07.110Z,2.10
2017-08-03T12:29:35.338Z,3.80
2017-08-03T12:32:02.802Z,2.70
2017-08-03T12:34:30.358Z,2.30
2017-08-03T12:36:58.693Z,2.87
2017-08-03T12:39:26.164Z,4.40
2017-08-03T12:41:54.399Z,2.27
2017-08-03T12:44:21.972Z,2.80
2017-08-03T12:46:50.231Z,2.47
2017-08-03T12:49:18.506Z,2.67
2017-08-03T12:51:45.966Z,2.73
2017-08-03T12:54:13.578Z,2.93
2017-08-03T12:56:41.838Z,7.50
2017-08-03T12:59:10.094Z,2.43
2017-08-03T13:01:38.390Z,3.63
2017-08-03T13:04:05.847Z,3.50
2017-08-03T13:06:33.338Z,2.30
2017-08-03T13:09:01.598Z,2.67
2017-08-03T13:11:30.058Z,3.00
2017-08-03T13:13:58.321Z,2.57
2017-08-03T13:16:25.810Z,4.97
2017-08-03T13:18:54.271Z,3.10
2017-08-03T13:21:22.637Z,2.87
2017-08-03T13:23:50.940Z,2.47
2017-08-03T13:26:18.442Z,5.50
2017-08-03T13:28:46.674Z,3.47
2017-08-03T13:31:14.147Z,3.80
2017-08-03T13:33:42.397Z,2.97
2017-08-03T13:36:09.993Z,3.30
2017-08-03T13:38:38.230Z,2.70
2017-08-03T13:41:05.694Z,2.50
2017-08-03T13:43:33.174Z,2.53
2017-08-03T13:46:00.806Z,4.63
2017-08-03T13:48:28.287Z,2.93
2017-08-03T13:50:56.559Z,2.90
2017-08-03T13:53:24.154Z,3.03
2017-08-03T13:55:51.621Z,3.97
2017-08-03T13:58:19.086Z,4.10
2017-08-03T14:00:46.618Z,3.60
2017-08-03T14:03:14.855Z,2.87
2017-08-03T14:05:42.347Z,3.00
2017-08-03T14:08:10.611Z,3.47
2017-08-03T14:10:38.866Z,3.70
2017-08-03T14:13:07.095Z,3.13
2017-08-03T14:15:34.618Z,5.53
2017-08-03T14:18:02.884Z,7.03
2017-08-03T14:20:31.138Z,3.37
2017-08-03T14:22:59.498Z,3.00
2017-08-03T14:25:27.721Z,4.00
2017-08-03T14:27:55.194Z,3.13
2017-08-03T14:30:23.470Z,3.10
2017-08-03T14:32:52.518Z,4.77
2017-08-03T14:35:19.978Z,3.80
2017-08-03T14:37:48.245Z,6.57
2017-08-03T14:40:16.473Z,5.47
2017-08-03T14:42:44.050Z,6.90
2017-08-03T14:45:12.274Z,4.57
2017-08-03T14:47:39.746Z,5.67
2017-08-03T14:50:08.014Z,6.13
2017-08-03T14:52:36.269Z,4.37
2017-08-03T14:55:04.530Z,6.50
2017-08-03T14:57:32.794Z,4.23
2017-08-03T15:00:01.049Z,3.80
2017-08-03T15:02:29.309Z,6.00
2017-08-03T15:04:57.583Z,7.00
2017-08-03T15:07:25.109Z,3.43
2017-08-03T15:09:53.373Z,3.40
2017-08-03T15:12:21.651Z,5.07
2017-08-03T15:14:49.905Z,4.93
2017-08-03T15:17:18.141Z,10.30
2017-08-03T15:19:45.818Z,4.57
2017-08-03T15:22:14.121Z,3.67
2017-08-03T15:24:41.615Z,6.57
2017-08-03T15:27:09.974Z,3.40
2017-08-03T15:29:38.210Z,4.80
2017-08-03T15:32:05.669Z,5.80
2017-08-03T15:34:34.043Z,3.40
2017-08-03T15:37:02.306Z,10.30
2017-08-03T15:39:30.566Z,3.43
2017-08-03T15:41:58.927Z,5.77
2017-08-03T15:44:27.168Z,4.37
2017-08-03T15:46:54.736Z,4.57
2017-08-03T15:49:22.373Z,3.30
2017-08-03T15:51:50.602Z,5.80
2017-08-03T15:54:18.057Z,4.10
2017-08-03T15:56:45.722Z,5.67
2017-08-03T15:59:14.030Z,5.40
2017-08-03T16:01:41.526Z,7.30
2017-08-03T16:04:12.084Z,8.33
2017-08-03T16:06:39.546Z,3.97
2017-08-03T16:09:07.030Z,9.57
2017-08-03T16:11:35.999Z,5.23
2017-08-03T16:14:04.233Z,3.13
2017-08-03T16:16:31.812Z,4.93
2017-08-03T16:19:00.070Z,4.73
2017-08-03T16:21:27.558Z,4.77
2017-08-03T16:23:55.801Z,5.00
2017-08-03T16:26:23.567Z,4.60
2017-08-03T16:28:51.826Z,4.53
2017-08-03T16:31:20.089Z,7.73
2017-08-03T16:33:48.538Z,5.27
2017-08-03T16:36:16.041Z,7.33
2017-08-03T16:38:44.307Z,5.57
2017-08-03T16:41:12.584Z,6.03
2017-08-03T16:43:40.047Z,5.53
2017-08-03T16:46:07.542Z,7.37
2017-08-03T16:48:35.103Z,7.03
2017-08-03T16:51:10.018Z,6.13
2017-08-03T16:53:38.302Z,5.70
2017-08-03T16:56:10.143Z,9.53
2017-08-03T16:58:37.662Z,7.10
2017-08-03T17:01:05.922Z,5.70
2017-08-03T17:03:34.158Z,5.10
2017-08-03T17:06:02.034Z,9.33
2017-08-03T17:08:30.267Z,4.93
2017-08-03T17:10:57.852Z,7.00
2017-08-03T17:13:26.198Z,9.20
2017-08-03T17:15:54.529Z,10.33
2017-08-03T17:18:22.063Z,5.73
2017-08-03T17:20:49.566Z,7.40
2017-08-03T17:23:17.097Z,6.43
2017-08-03T17:25:45.325Z,7.43
2017-08-03T17:28:13.002Z,7.20
2017-08-03T17:30:41.262Z,9.70
2017-08-03T17:33:14.741Z,9.97
2017-08-03T17:35:42.975Z,5.60
2017-08-03T17:38:10.429Z,5.73
2017-08-03T17:40:38.686Z,9.60
2017-08-03T17:43:06.242Z,7.97
2017-08-03T17:45:34.466Z,9.40
2017-08-03T17:48:02.976Z,7.70
2017-08-03T17:50:31.234Z,6.70
2017-08-03T17:52:58.706Z,6.53
2017-08-03T17:55:27.071Z,14.20
2017-08-03T17:57:54.542Z,7.97
2017-08-03T18:00:21.998Z,7.40
2017-08-03T18:02:49.494Z,5.90
2017-08-03T18:05:17.054Z,6.47
2017-08-03T18:07:45.310Z,7.33
2017-08-03T18:10:13.778Z,4.20
2017-08-03T18:12:41.274Z,8.87
2017-08-03T18:15:08.770Z,4.03
2017-08-03T18:17:37.045Z,9.27
2017-08-03T18:20:04.515Z,10.93
2017-08-03T18:22:31.983Z,7.03
2017-08-03T18:24:59.482Z,5.93
2017-08-03T18:27:27.842Z,8.53
2017-08-03T18:29:56.075Z,11.27
2017-08-03T18:32:23.535Z,6.10
2017-08-03T18:34:51.802Z,5.80
2017-08-03T18:37:20.071Z,10.50
2017-08-03T18:39:48.335Z,4.67
2017-08-03T18:42:22.738Z,9.73
2017-08-03T18:44:50.974Z,6.83
2017-08-03T18:47:18.658Z,7.47
2017-08-03T18:49:46.389Z,8.43
2017-08-03T18:52:13.905Z,7.57
2017-08-03T18:54:42.155Z,4.77
2017-08-03T18:57:10.514Z,5.87
2017-08-03T18:59:38.789Z,12.43
2017-08-03T19:02:06.318Z,4.07
2017-08-03T19:04:34.777Z,6.50
2017-08-03T19:07:03.059Z,9.47
2017-08-03T19:09:30.518Z,5.93
2017-08-03T19:11:58.030Z,8.40
2017-08-03T19:14:26.261Z,10.20
2017-08-03T19:16:53.723Z,4.80
2017-08-03T19:19:21.997Z,7.60
2017-08-03T19:21:50.228Z,6.10
2017-08-03T19:24:17.688Z,5.57
2017-08-03T19:26:45.942Z,5.40
2017-08-03T19:29:13.406Z,4.60
2017-08-03T19:31:40.886Z,7.37
2017-08-03T19:34:09.352Z,8.33
2017-08-03T19:36:37.630Z,5.67
2017-08-03T19:39:05.096Z,8.73
2017-08-03T19:41:32.594Z,5.53
2017-08-03T19:44:00.954Z,5.77
2017-08-03T19:46:29.214Z,7.37
2017-08-03T19:48:57.471Z,10.23
2017-08-03T19:51:25.702Z,8.73
2017-08-03T19:53:53.172Z,6.03
2017-08-03T19:56:21.615Z,7.80
2017-08-03T19:58:49.086Z,6.33
2017-08-03T20:01:17.326Z,8.60
2017-08-03T20:03:44.986Z,7.13
2017-08-03T20:06:13.350Z,11.03
2017-08-03T20:08:49.519Z,5.00
2017-08-03T20:11:16.990Z,6.67
2017-08-03T20:13:44.482Z,7.70
2017-08-03T20:16:12.734Z,5.83
2017-08-03T20:18:40.967Z,8.30
2017-08-03T20:21:09.711Z,10.87
2017-08-03T20:23:37.418Z,8.80
2017-08-03T20:26:05.642Z,8.37
2017-08-03T20:28:33.110Z,13.63
2017-08-03T20:31:00.694Z,12.73
2017-08-03T20:33:28.156Z,11.43
2017-08-03T20:35:56.390Z,8.03
2017-08-03T20:38:23.950Z,11.20
2017-08-03T20:40:52.186Z,14.60
2017-08-03T20:43:19.654Z,17.27
2017-08-03T20:45:48.118Z,10.17
2017-08-03T20:48:15.671Z,9.60
2017-08-03T20:50:43.927Z,10.20
2017-08-03T20:53:12.178Z,6.30
2017-08-03T20:55:40.446Z,10.57
2017-08-03T20:58:08.674Z,5.60
2017-08-03T21:00:36.178Z,6.10
2017-08-03T21:03:12.990Z,6.53
2017-08-03T21:05:40.558Z,4.70
2017-08-03T21:08:08.824Z,6.97
2017-08-03T21:10:37.058Z,5.23
2017-08-03T21:13:04.622Z,4.93
2017-08-03T21:15:32.885Z,7.00
2017-08-03T21:18:01.154Z,5.60
2017-08-03T21:20:29.508Z,6.27
2017-08-03T21:22:57.757Z,7.70
2017-08-03T21:25:25.990Z,10.90
2017-08-03T21:27:53.553Z,5.83
2017-08-03T21:30:21.781Z,6.77
2017-08-03T21:32:49.242Z,6.10
2017-08-03T21:35:17.018Z,6.30
2017-08-03T21:37:44.482Z,6.70
2017-08-03T21:40:11.990Z,6.23
2017-08-03T21:42:40.254Z,4.63
2017-08-03T21:45:08.498Z,7.40
2017-08-03T21:47:36.735Z,4.93
2017-08-03T21:50:04.327Z,4.33
2017-08-03T21:52:32.555Z,5.33
2017-08-03T21:55:00.028Z,4.30
2017-08-03T21:57:27.735Z,4.83
2017-08-03T21:59:55.987Z,6.90
2017-08-03T22:02:24.218Z,5.17
2017-08-03T22:04:51.705Z,8.37
2017-08-03T22:07:19.178Z,8.43
2017-08-03T22:09:46.683Z,12.23
2017-08-03T22:12:15.038Z,7.23
2017-08-03T22:14:43.273Z,6.23
2017-08-03T22:17:11.509Z,4.40
2017-08-03T22:19:39.018Z,7.97
2017-08-03T22:22:06.520Z,7.87
2017-08-03T22:24:34.758Z,5.43
2017-08-03T22:27:02.459Z,12.13
2017-08-03T22:29:30.123Z,6.23
2017-08-03T22:31:57.586Z,9.30
2017-08-03T22:34:25.198Z,10.33
2017-08-03T22:36:52.758Z,6.37
2017-08-03T22:39:21.039Z,12.27
2017-08-03T22:41:48.776Z,5.03
2017-08-03T22:44:17.034Z,6.87
2017-08-03T22:46:45.326Z,4.73
2017-08-03T22:49:12.902Z,5.33
2017-08-03T22:51:40.382Z,8.33
2017-08-03T22:54:08.642Z,6.03
2017-08-03T22:56:37.002Z,7.47
2017-08-03T22:59:05.227Z,7.60
2017-08-03T23:01:32.722Z,9.03
2017-08-03T23:04:00.250Z,10.27
2017-08-03T23:06:28.510Z,7.33
2017-08-03T23:08:56.766Z,4.83
2017-08-03T23:11:25.127Z,14.23
2017-08-03T23:13:53.354Z,5.93
2017-08-03T23:16:20.833Z,6.70
2017-08-03T23:18:49.077Z,7.50
2017-08-03T23:21:16.566Z,8.97
2017-08-03T23:23:44.074Z,9.10
2017-08-03T23:26:11.614Z,11.80
2017-08-03T23:28:39.900Z,7.87
2017-08-03T23:31:07.364Z,3.70
2017-08-03T23:33:34.862Z,5.50
2017-08-03T23:36:03.127Z,10.50
2017-08-03T23:38:31.382Z,7.80
2017-08-03T23:40:59.609Z,6.93
2017-08-03T23:43:27.192Z,7.67
2017-08-03T23:45:55.450Z,4.20
2017-08-03T23:48:23.710Z,7.70
2017-08-03T23:50:51.974Z,8.20
2017-08-03T23:53:20.208Z,4.60
2017-08-03T23:55:47.771Z,6.03
2017-08-03T23:58:16.035Z,7.53
